createdAt,value
2023-03-23T00:00:14.487Z,2.28
2023-03-23T00:02:19.846Z,2.60
2023-03-23T00:04:28.164Z,2.10
2023-03-23T00:06:34.183Z,2.50
2023-03-23T00:08:46.211Z,2.30
2023-03-23T00:10:53.548Z,2.63
2023-03-23T00:12:58.928Z,2.25
2023-03-23T00:15:04.657Z,2.30
2023-03-23T00:17:11.066Z,2.92
2023-03-23T00:19:16.960Z,2.38
2023-03-23T00:21:22.081Z,2.20
2023-03-23T00:23:29.893Z,2.80
2023-03-23T00:25:37.347Z,2.40
2023-03-23T00:27:42.249Z,2.40
2023-03-23T00:29:49.012Z,2.38
2023-03-23T00:31:57.763Z,2.22
2023-03-23T00:34:05.143Z,2.45
2023-03-23T00:36:12.389Z,2.40
2023-03-23T00:38:17.230Z,2.72
2023-03-23T00:40:22.193Z,3.00
2023-03-23T00:42:29.732Z,2.65
2023-03-23T00:44:37.472Z,2.08
2023-03-23T00:46:46.260Z,2.17
2023-03-23T00:48:51.734Z,2.22
2023-03-23T00:50:57.063Z,2.55
2023-03-23T00:53:02.305Z,2.45
2023-03-23T00:55:08.549Z,2.55
2023-03-23T00:57:13.508Z,2.40
2023-03-23T00:59:21.254Z,2.63
2023-03-23T01:01:26.204Z,2.45
2023-03-23T01:03:31.216Z,2.47
2023-03-23T01:05:39.323Z,2.65
2023-03-23T01:07:45.456Z,2.28
2023-03-23T01:09:50.632Z,2.58
2023-03-23T01:11:57.423Z,2.53
2023-03-23T01:14:03.015Z,2.80
2023-03-23T01:16:10.819Z,2.55
2023-03-23T01:18:15.777Z,2.72
2023-03-23T01:20:20.716Z,2.60
2023-03-23T01:22:26.186Z,3.13
2023-03-23T01:24:31.350Z,2.72
2023-03-23T01:26:37.053Z,2.47
2023-03-23T01:28:42.798Z,3.20
2023-03-23T01:30:47.736Z,2.15
2023-03-23T01:32:55.666Z,2.80
2023-03-23T01:35:02.323Z,2.95
2023-03-23T01:37:07.438Z,3.15
2023-03-23T01:39:12.980Z,3.10
2023-03-23T01:41:21.956Z,2.92
2023-03-23T01:43:27.159Z,2.92
2023-03-23T01:45:35.948Z,2.38
2023-03-23T01:47:41.582Z,2.53
2023-03-23T01:49:52.434Z,3.28
2023-03-23T01:52:01.459Z,2.70
2023-03-23T01:54:08.534Z,3.13
2023-03-23T01:56:15.123Z,3.33
2023-03-23T01:58:26.689Z,2.67
2023-03-23T02:00:31.733Z,2.65
2023-03-23T02:02:39.504Z,2.75
2023-03-23T02:04:45.568Z,2.60
2023-03-23T02:06:53.671Z,2.85
2023-03-23T02:09:10.529Z,3.28
2023-03-23T02:11:22.148Z,3.13
2023-03-23T02:13:28.705Z,3.00
2023-03-23T02:15:47.454Z,3.05
2023-03-23T02:17:58.410Z,3.22
2023-03-23T02:20:16.932Z,3.28
2023-03-23T02:22:51.371Z,3.10
2023-03-23T02:25:01.421Z,3.35
2023-03-23T02:27:10.335Z,3.15
2023-03-23T02:29:47.270Z,2.92
2023-03-23T02:32:09.541Z,2.60
2023-03-23T02:34:22.303Z,2.88
2023-03-23T02:38:51.917Z,3.00
2023-03-23T02:41:01.277Z,2.90
2023-03-23T02:43:11.372Z,3.45
2023-03-23T02:45:19.861Z,2.90
2023-03-23T02:47:27.740Z,2.83
2023-03-23T02:49:38.782Z,3.58
2023-03-23T02:51:44.447Z,3.20
2023-03-23T02:53:51.857Z,2.70
2023-03-23T02:55:59.045Z,3.35
2023-03-23T02:58:07.608Z,3.30
2023-03-23T03:00:19.821Z,3.83
2023-03-23T03:02:27.353Z,2.72
2023-03-23T03:04:37.807Z,2.83
2023-03-23T03:06:54.438Z,3.30
2023-03-23T03:09:09.075Z,2.22
2023-03-23T03:11:16.447Z,2.50
2023-03-23T03:13:34.140Z,2.67
2023-03-23T03:15:48.075Z,2.90
2023-03-23T03:17:59.992Z,2.80
2023-03-23T03:20:11.711Z,2.92
2023-03-23T03:22:18.268Z,2.93
2023-03-23T03:24:26.203Z,3.10
2023-03-23T03:26:32.968Z,2.70
2023-03-23T03:28:54.329Z,2.83
2023-03-23T03:31:01.899Z,2.97
2023-03-23T03:33:07.448Z,3.05
2023-03-23T03:35:15.649Z,2.28
2023-03-23T03:37:22.461Z,2.58
2023-03-23T03:39:30.692Z,2.80
2023-03-23T03:41:35.689Z,2.80
2023-03-23T03:43:41.046Z,2.60
2023-03-23T03:45:46.359Z,2.65
2023-03-23T03:47:51.827Z,2.78
2023-03-23T03:49:56.757Z,2.67
2023-03-23T03:52:05.456Z,2.90
2023-03-23T03:54:19.108Z,2.38
2023-03-23T03:56:24.221Z,2.90
2023-03-23T03:58:43.642Z,2.40
2023-03-23T04:01:03.564Z,2.70
2023-03-23T04:03:13.217Z,2.35
2023-03-23T04:05:26.080Z,2.60
2023-03-23T04:07:33.544Z,2.63
2023-03-23T04:09:47.083Z,3.00
2023-03-23T04:11:56.601Z,3.05
2023-03-23T04:14:20.407Z,2.95
2023-03-23T04:16:27.408Z,3.03
2023-03-23T04:18:33.311Z,3.00
2023-03-23T04:20:39.108Z,2.45
2023-03-23T04:22:50.213Z,2.63
2023-03-23T04:24:57.740Z,2.80
2023-03-23T04:27:04.517Z,2.42
2023-03-23T04:29:09.743Z,2.40
2023-03-23T04:31:16.029Z,2.42
2023-03-23T04:33:27.350Z,2.83
2023-03-23T04:35:54.303Z,2.70
2023-03-23T04:38:21.506Z,2.90
2023-03-23T04:40:31.649Z,3.50
2023-03-23T04:42:58.749Z,4.60
2023-03-23T04:45:22.809Z,3.40
2023-03-23T04:47:31.861Z,3.40
2023-03-23T04:49:39.316Z,3.80
2023-03-23T04:51:57.721Z,3.10
2023-03-23T04:54:23.269Z,3.25
2023-03-23T04:56:32.300Z,3.78
2023-03-23T04:58:45.003Z,2.88
2023-03-23T05:01:08.900Z,2.70
2023-03-23T05:03:23.596Z,2.85
2023-03-23T05:05:33.171Z,3.53
2023-03-23T05:07:44.133Z,3.38
2023-03-23T05:09:54.075Z,3.05
2023-03-23T05:12:01.902Z,3.55
2023-03-23T05:14:07.866Z,2.88
2023-03-23T05:16:13.154Z,3.85
2023-03-23T05:18:21.456Z,3.53
2023-03-23T05:20:27.018Z,2.90
2023-03-23T05:22:39.405Z,3.40
2023-03-23T05:24:46.429Z,2.97
2023-03-23T05:26:54.107Z,2.45
2023-03-23T05:29:04.973Z,2.55
2023-03-23T05:31:21.646Z,2.63
2023-03-23T05:33:27.072Z,2.15
2023-03-23T05:35:39.151Z,2.60
2023-03-23T05:37:44.979Z,2.70
2023-03-23T05:39:54.421Z,2.50
2023-03-23T05:42:31.349Z,4.40
2023-03-23T05:44:46.642Z,4.30
2023-03-23T05:46:51.685Z,4.28
2023-03-23T05:48:57.153Z,3.45
2023-03-23T05:51:09.760Z,3.75
2023-03-23T05:53:18.108Z,3.50
2023-03-23T05:55:23.120Z,3.30
2023-03-23T05:57:40.366Z,3.78
2023-03-23T05:59:53.391Z,2.92
2023-03-23T06:02:01.758Z,3.22
2023-03-23T06:04:07.531Z,2.40
2023-03-23T06:06:22.834Z,2.00
2023-03-23T06:08:38.208Z,2.50
2023-03-23T06:10:43.579Z,2.08
2023-03-23T06:12:54.220Z,2.20
2023-03-23T06:15:19.557Z,2.20
2023-03-23T06:17:43.274Z,2.08
2023-03-23T06:19:51.878Z,2.10
2023-03-23T06:21:58.229Z,2.40
2023-03-23T06:24:18.632Z,2.00
2023-03-23T06:26:26.334Z,2.20
2023-03-23T06:28:39.391Z,2.35
2023-03-23T06:30:44.928Z,1.70
2023-03-23T06:32:50.073Z,2.22
2023-03-23T06:34:59.583Z,2.35
2023-03-23T06:37:28.035Z,2.20
2023-03-23T06:39:40.819Z,2.35
2023-03-23T06:41:58.017Z,2.40
2023-03-23T06:44:05.629Z,3.15
2023-03-23T06:46:12.109Z,2.72
2023-03-23T06:48:19.779Z,2.55
2023-03-23T06:50:25.272Z,2.85
2023-03-23T06:52:30.491Z,2.70
2023-03-23T06:54:35.485Z,2.85
2023-03-23T06:56:41.786Z,3.80
2023-03-23T06:58:49.402Z,4.97
2023-03-23T07:01:02.278Z,3.40
2023-03-23T07:03:16.212Z,7.85
2023-03-23T07:05:22.181Z,9.52
2023-03-23T07:07:29.084Z,4.15
2023-03-23T07:09:48.619Z,2.25
2023-03-23T07:11:57.788Z,2.65
2023-03-23T07:14:12.988Z,2.40
2023-03-23T07:16:21.790Z,2.75
2023-03-23T07:18:26.819Z,2.92
2023-03-23T07:20:32.795Z,2.78
2023-03-23T07:22:38.049Z,2.45
2023-03-23T07:24:51.113Z,2.25
2023-03-23T07:27:02.569Z,2.50
2023-03-23T07:29:08.444Z,2.08
2023-03-23T07:31:22.041Z,2.40
2023-03-23T07:33:27.382Z,2.80
2023-03-23T07:35:34.893Z,2.47
2023-03-23T07:37:43.128Z,2.45
2023-03-23T07:39:48.032Z,2.22
2023-03-23T07:41:54.140Z,2.20
2023-03-23T07:44:12.085Z,2.10
2023-03-23T07:46:22.220Z,2.63
2023-03-23T07:48:49.258Z,2.00
2023-03-23T07:50:55.141Z,2.33
2023-03-23T07:53:02.120Z,2.33
2023-03-23T07:55:13.018Z,2.25
2023-03-23T07:57:30.752Z,2.60
2023-03-23T07:59:36.529Z,2.40
2023-03-23T08:01:45.376Z,2.42
2023-03-23T08:04:08.799Z,2.10
2023-03-23T08:06:37.143Z,2.15
2023-03-23T08:08:58.146Z,2.40
2023-03-23T08:11:22.374Z,1.95
2023-03-23T08:13:51.293Z,1.98
2023-03-23T08:15:58.853Z,2.05
2023-03-23T08:18:18.552Z,2.10
2023-03-23T08:20:55.535Z,2.40
2023-03-23T08:23:10.517Z,2.70
2023-03-23T08:25:32.374Z,2.80
2023-03-23T08:27:56.132Z,2.33
2023-03-23T08:30:15.318Z,2.50
2023-03-23T08:32:32.764Z,2.75
2023-03-23T08:34:55.830Z,2.20
2023-03-23T08:37:20.782Z,2.40
2023-03-23T08:39:44.368Z,2.17
2023-03-23T08:42:06.220Z,2.40
2023-03-23T08:44:23.298Z,2.72
2023-03-23T08:46:50.830Z,2.17
2023-03-23T08:49:14.253Z,2.15
2023-03-23T08:51:34.815Z,2.08
2023-03-23T08:54:07.098Z,2.67
2023-03-23T08:56:41.294Z,2.10
2023-03-23T08:59:04.188Z,2.10
2023-03-23T09:01:14.548Z,2.15
2023-03-23T09:03:22.165Z,2.08
2023-03-23T09:05:49.781Z,2.55
2023-03-23T09:08:00.006Z,2.30
2023-03-23T09:10:05.169Z,2.33
2023-03-23T09:12:10.594Z,1.90
2023-03-23T09:14:15.656Z,2.40
2023-03-23T09:16:20.444Z,2.30
2023-03-23T09:18:25.865Z,2.15
2023-03-23T09:20:32.321Z,2.30
2023-03-23T09:22:37.171Z,2.20
2023-03-23T09:24:44.977Z,2.33
2023-03-23T09:26:49.772Z,1.90
2023-03-23T09:28:54.716Z,2.10
2023-03-23T09:31:00.401Z,2.30
2023-03-23T09:33:05.957Z,2.08
2023-03-23T09:35:13.719Z,2.60
2023-03-23T09:37:18.835Z,2.30
2023-03-23T09:39:23.639Z,1.90
2023-03-23T09:41:53.414Z,2.15
2023-03-23T09:44:07.687Z,1.73
2023-03-23T09:46:25.375Z,1.85
2023-03-23T09:48:45.049Z,1.88
2023-03-23T09:50:55.624Z,1.58
2023-03-23T09:53:04.655Z,1.90
2023-03-23T09:55:15.789Z,1.83
2023-03-23T09:57:28.654Z,2.17
2023-03-23T09:59:38.075Z,1.90
2023-03-23T10:01:46.254Z,1.90
2023-03-23T10:03:52.555Z,1.88
2023-03-23T10:05:59.309Z,2.05
2023-03-23T10:08:06.785Z,2.00
2023-03-23T10:10:18.826Z,1.83
2023-03-23T10:12:33.073Z,1.77
2023-03-23T10:14:51.307Z,1.75
2023-03-23T10:17:04.659Z,1.63
2023-03-23T10:19:16.545Z,2.80
2023-03-23T10:21:25.653Z,1.60
2023-03-23T10:23:50.083Z,2.13
2023-03-23T10:25:59.618Z,1.33
2023-03-23T10:28:13.581Z,1.58
2023-03-23T10:30:23.150Z,1.70
2023-03-23T10:32:50.592Z,1.40
2023-03-23T10:34:59.858Z,1.20
2023-03-23T10:37:09.496Z,1.45
2023-03-23T10:39:18.375Z,1.63
2023-03-23T10:41:25.612Z,1.60
2023-03-23T10:43:34.495Z,1.20
2023-03-23T10:45:44.182Z,1.35
2023-03-23T10:47:56.873Z,1.42
2023-03-23T10:50:06.467Z,1.42
2023-03-23T10:52:22.555Z,2.38
2023-03-23T10:54:36.221Z,1.70
2023-03-23T10:56:58.127Z,2.75
2023-03-23T10:59:15.807Z,2.10
2023-03-23T11:01:23.229Z,2.05
2023-03-23T11:03:45.339Z,1.42
2023-03-23T11:05:54.364Z,1.52
2023-03-23T11:08:01.290Z,1.67
2023-03-23T11:10:26.943Z,1.83
2023-03-23T11:12:37.552Z,1.50
2023-03-23T11:14:45.980Z,1.80
2023-03-23T11:16:59.415Z,1.50
2023-03-23T11:19:17.601Z,1.73
2023-03-23T11:21:24.641Z,1.50
2023-03-23T11:23:32.991Z,1.38
2023-03-23T11:25:37.838Z,1.77
2023-03-23T11:27:44.384Z,1.65
2023-03-23T11:29:58.587Z,1.23
2023-03-23T11:32:09.724Z,1.67
2023-03-23T11:34:19.527Z,1.33
2023-03-23T11:36:25.018Z,1.30
2023-03-23T11:38:31.288Z,1.60
2023-03-23T11:40:36.852Z,1.50
2023-03-23T11:42:47.000Z,1.38
2023-03-23T11:44:54.428Z,1.55
2023-03-23T11:47:07.278Z,1.88
2023-03-23T11:49:25.743Z,1.55
2023-03-23T11:51:38.621Z,1.65
2023-03-23T11:53:51.248Z,2.10
2023-03-23T11:56:04.250Z,1.65
2023-03-23T11:58:16.907Z,1.23
2023-03-23T12:00:26.801Z,1.80
2023-03-23T12:02:46.697Z,1.48
2023-03-23T12:05:11.505Z,1.30
2023-03-23T12:07:51.790Z,1.40
2023-03-23T12:10:07.020Z,1.13
2023-03-23T12:12:20.667Z,1.40
2023-03-23T12:14:38.177Z,2.42
2023-03-23T12:17:05.370Z,1.65
2023-03-23T12:19:20.461Z,1.48
2023-03-23T12:21:34.213Z,1.38
2023-03-23T12:23:47.725Z,1.50
2023-03-23T12:26:19.505Z,0.95
2023-03-23T12:28:37.264Z,1.13
2023-03-23T12:30:49.525Z,1.10
2023-03-23T12:33:09.914Z,1.15
2023-03-23T12:35:27.432Z,1.63
2023-03-23T12:37:47.033Z,1.30
2023-03-23T12:40:10.718Z,1.15
2023-03-23T12:42:26.979Z,1.30
2023-03-23T12:44:38.949Z,1.17
2023-03-23T12:46:55.497Z,1.52
2023-03-23T12:49:09.500Z,1.20
2023-03-23T12:51:25.173Z,1.05
2023-03-23T12:53:32.998Z,1.20
2023-03-23T12:55:45.584Z,1.40
2023-03-23T12:57:58.848Z,1.17
2023-03-23T13:00:13.095Z,1.10
2023-03-23T13:02:24.349Z,1.48
2023-03-23T13:04:37.401Z,1.30
2023-03-23T13:08:54.664Z,1.60
2023-03-23T13:11:04.469Z,1.40
2023-03-23T13:13:21.431Z,1.13
2023-03-23T13:15:35.391Z,1.35
2023-03-23T13:17:48.864Z,1.52
2023-03-23T13:20:23.266Z,1.13
2023-03-23T13:22:35.004Z,1.30
2023-03-23T13:24:45.383Z,1.33
2023-03-23T13:26:53.281Z,1.30
2023-03-23T13:29:03.081Z,1.10
2023-03-23T13:31:17.427Z,1.20
2023-03-23T13:33:22.416Z,1.80
2023-03-23T13:35:29.941Z,1.30
2023-03-23T13:37:35.180Z,1.30
2023-03-23T13:39:42.429Z,1.30
2023-03-23T13:41:52.871Z,1.45
2023-03-23T13:44:09.852Z,1.42
2023-03-23T13:46:32.896Z,1.50
2023-03-23T13:48:49.502Z,1.23
2023-03-23T13:51:29.966Z,1.08
2023-03-23T13:53:54.916Z,1.30
2023-03-23T13:56:18.129Z,1.13
2023-03-23T13:58:31.682Z,1.20
2023-03-23T14:00:53.061Z,1.27
2023-03-23T14:03:09.046Z,1.25
2023-03-23T14:08:00.894Z,0.90
2023-03-23T14:10:11.086Z,1.45
2023-03-23T14:12:21.891Z,1.25
2023-03-23T14:14:33.682Z,1.30
2023-03-23T14:16:43.452Z,1.40
2023-03-23T14:18:56.380Z,1.13
2023-03-23T14:21:03.178Z,1.58
2023-03-23T14:23:18.887Z,1.23
2023-03-23T14:25:25.348Z,1.55
2023-03-23T14:27:30.805Z,1.45
2023-03-23T14:29:36.030Z,1.27
2023-03-23T14:31:41.745Z,1.30
2023-03-23T14:33:46.662Z,1.60
2023-03-23T14:35:51.638Z,1.27
2023-03-23T14:37:56.894Z,1.27
2023-03-23T14:40:07.043Z,1.10
2023-03-23T14:42:16.911Z,1.80
2023-03-23T14:44:26.916Z,1.60
2023-03-23T14:46:33.708Z,1.15
2023-03-23T14:48:39.729Z,1.33
2023-03-23T14:50:46.502Z,1.65
2023-03-23T14:52:52.478Z,1.10
2023-03-23T14:54:57.669Z,1.30
2023-03-23T14:57:14.371Z,1.00
2023-03-23T14:59:19.363Z,1.65
2023-03-23T15:01:28.365Z,1.95
2023-03-23T15:03:39.416Z,2.45
2023-03-23T15:05:50.126Z,1.40
2023-03-23T15:07:59.254Z,1.10
2023-03-23T15:10:04.392Z,1.25
2023-03-23T15:12:24.793Z,1.08
2023-03-23T15:14:33.182Z,1.30
2023-03-23T15:16:42.634Z,1.40
2023-03-23T15:18:54.935Z,1.50
2023-03-23T15:20:59.871Z,1.70
2023-03-23T15:23:10.737Z,1.27
2023-03-23T15:25:22.142Z,1.27
2023-03-23T15:27:36.783Z,1.20
2023-03-23T15:29:51.223Z,1.63
2023-03-23T15:31:58.854Z,1.17
2023-03-23T15:34:08.530Z,1.48
2023-03-23T15:36:19.810Z,1.58
2023-03-23T15:38:26.840Z,1.23
2023-03-23T15:40:37.486Z,1.75
2023-03-23T15:42:45.695Z,1.63
2023-03-23T15:45:00.161Z,1.88
2023-03-23T15:47:18.353Z,1.92
2023-03-23T15:49:24.695Z,2.25
2023-03-23T15:51:31.447Z,1.92
2023-03-23T15:53:39.266Z,1.90
2023-03-23T15:55:44.363Z,1.50
2023-03-23T15:57:53.056Z,1.67
2023-03-23T15:59:57.892Z,1.70
2023-03-23T16:02:02.719Z,1.70
2023-03-23T16:04:10.711Z,1.65
2023-03-23T16:06:25.324Z,1.63
2023-03-23T16:08:30.807Z,1.80
2023-03-23T16:10:35.660Z,1.83
2023-03-23T16:12:40.714Z,1.60
2023-03-23T16:14:48.191Z,1.90
2023-03-23T16:16:54.397Z,1.90
2023-03-23T16:18:59.642Z,1.92
2023-03-23T16:21:04.458Z,1.85
2023-03-23T16:23:09.297Z,1.77
2023-03-23T16:25:14.974Z,1.65
2023-03-23T16:27:21.696Z,1.80
2023-03-23T16:29:40.592Z,1.60
2023-03-23T16:31:54.037Z,1.98
2023-03-23T16:33:58.923Z,1.42
2023-03-23T16:36:04.031Z,2.25
2023-03-23T16:38:09.949Z,1.60
2023-03-23T16:40:16.329Z,1.73
2023-03-23T16:42:21.186Z,1.70
2023-03-23T16:44:26.269Z,2.00
2023-03-23T16:46:31.365Z,2.60
2023-03-23T16:48:40.829Z,2.50
2023-03-23T16:50:46.855Z,1.60
2023-03-23T16:52:51.659Z,1.80
2023-03-23T16:54:56.544Z,1.98
2023-03-23T16:57:01.433Z,1.83
2023-03-23T16:59:06.369Z,5.53
2023-03-23T17:01:12.202Z,7.53
2023-03-23T17:03:17.191Z,4.90
2023-03-23T17:05:26.818Z,3.60
2023-03-23T17:07:31.792Z,2.70
2023-03-23T17:09:37.139Z,2.10
2023-03-23T17:11:42.117Z,2.05
2023-03-23T17:13:46.953Z,1.60
2023-03-23T17:15:56.749Z,1.92
2023-03-23T17:18:02.091Z,2.70
2023-03-23T17:20:08.264Z,2.70
2023-03-23T17:22:15.724Z,1.98
2023-03-23T17:24:21.197Z,1.60
2023-03-23T17:26:26.021Z,1.77
2023-03-23T17:28:30.843Z,2.17
2023-03-23T17:30:36.152Z,2.47
2023-03-23T17:32:41.169Z,2.20
2023-03-23T17:34:46.218Z,2.30
2023-03-23T17:36:51.068Z,2.22
2023-03-23T17:38:58.481Z,2.33
2023-03-23T17:41:08.043Z,2.17
2023-03-23T17:43:12.915Z,2.40
2023-03-23T17:45:17.924Z,2.25
2023-03-23T17:47:24.060Z,2.70
2023-03-23T17:49:30.492Z,2.80
2023-03-23T17:51:35.574Z,2.58
2023-03-23T17:53:40.448Z,2.20
2023-03-23T17:55:48.663Z,2.75
2023-03-23T17:57:53.588Z,2.53
2023-03-23T17:59:58.531Z,2.40
2023-03-23T18:02:03.494Z,2.55
2023-03-23T18:04:08.342Z,2.90
2023-03-23T18:06:13.680Z,3.63
2023-03-23T18:08:18.480Z,3.38
2023-03-23T18:10:23.517Z,3.30
2023-03-23T18:12:31.658Z,2.28
2023-03-23T18:14:38.606Z,3.85
2023-03-23T18:16:43.402Z,4.07
2023-03-23T18:18:48.609Z,4.15
2023-03-23T18:20:57.548Z,3.60
2023-03-23T18:23:03.794Z,2.80
2023-03-23T18:25:09.400Z,2.88
2023-03-23T18:27:14.460Z,2.47
2023-03-23T18:29:21.970Z,2.45
2023-03-23T18:31:27.221Z,2.72
2023-03-23T18:33:32.022Z,2.70
2023-03-23T18:35:36.896Z,2.70
2023-03-23T18:37:43.731Z,2.47
2023-03-23T18:39:48.680Z,2.75
2023-03-23T18:41:53.519Z,2.50
2023-03-23T18:43:59.100Z,2.40
2023-03-23T18:46:07.083Z,3.92
2023-03-23T18:48:12.434Z,3.40
2023-03-23T18:50:18.413Z,3.30
2023-03-23T18:52:26.256Z,2.80
2023-03-23T18:54:33.645Z,2.30
2023-03-23T18:56:38.724Z,2.90
2023-03-23T18:58:43.644Z,2.88
2023-03-23T19:00:50.154Z,3.10
2023-03-23T19:02:58.213Z,3.05
2023-03-23T19:05:06.120Z,3.30
2023-03-23T19:07:11.079Z,2.53
2023-03-23T19:09:15.951Z,2.50
2023-03-23T19:11:21.214Z,2.33
2023-03-23T19:13:26.406Z,2.25
2023-03-23T19:15:31.422Z,2.58
2023-03-23T19:17:36.278Z,2.00
2023-03-23T19:19:44.991Z,2.25
2023-03-23T19:21:50.049Z,2.00
2023-03-23T19:23:55.074Z,2.78
2023-03-23T19:26:00.425Z,2.15
2023-03-23T19:30:14.237Z,3.13
2023-03-23T19:32:19.080Z,3.30
2023-03-23T19:34:25.069Z,4.93
2023-03-23T19:36:33.057Z,4.72
2023-03-23T19:38:38.042Z,4.63
2023-03-23T19:40:42.988Z,4.88
2023-03-23T19:42:48.085Z,4.72
2023-03-23T19:44:52.904Z,4.78
2023-03-23T19:46:58.029Z,4.00
2023-03-23T19:49:04.091Z,3.75
2023-03-23T19:51:10.561Z,4.13
2023-03-23T19:53:19.215Z,3.90
2023-03-23T19:55:24.425Z,4.70
2023-03-23T19:57:30.248Z,4.78
2023-03-23T19:59:35.372Z,5.00
2023-03-23T20:01:41.213Z,4.40
2023-03-23T20:03:47.915Z,5.07
2023-03-23T20:05:52.849Z,4.20
2023-03-23T20:07:58.369Z,4.30
2023-03-23T20:10:06.321Z,3.80
2023-03-23T20:12:13.487Z,3.58
2023-03-23T20:14:18.431Z,3.40
2023-03-23T20:16:23.721Z,3.88
2023-03-23T20:18:29.877Z,3.30
2023-03-23T20:20:36.757Z,3.42
2023-03-23T20:22:41.975Z,3.65
2023-03-23T20:24:49.403Z,3.35
2023-03-23T20:26:57.253Z,3.00
2023-03-23T20:29:03.128Z,3.20
2023-03-23T20:31:19.886Z,2.95
2023-03-23T20:33:30.637Z,3.08
2023-03-23T20:35:35.541Z,3.50
2023-03-23T20:37:42.326Z,3.10
2023-03-23T20:39:48.723Z,3.58
2023-03-23T20:41:58.922Z,3.63
2023-03-23T20:44:03.816Z,3.45
2023-03-23T20:46:10.952Z,3.88
2023-03-23T20:48:15.895Z,3.17
2023-03-23T20:50:20.895Z,3.40
2023-03-23T20:52:26.488Z,3.20
2023-03-23T20:54:31.798Z,3.38
2023-03-23T20:56:40.053Z,3.10
2023-03-23T20:58:47.990Z,3.00
2023-03-23T21:00:57.242Z,3.78
2023-03-23T21:03:02.163Z,3.60
2023-03-23T21:05:07.413Z,3.22
2023-03-23T21:07:12.949Z,3.58
2023-03-23T21:09:19.375Z,3.50
2023-03-23T21:11:27.003Z,3.25
2023-03-23T21:13:31.914Z,3.25
2023-03-23T21:15:40.145Z,3.20
2023-03-23T21:17:44.939Z,3.13
2023-03-23T21:19:50.177Z,3.78
2023-03-23T21:21:57.292Z,3.47
2023-03-23T21:24:02.974Z,2.72
2023-03-23T21:26:10.233Z,3.38
2023-03-23T21:28:17.463Z,2.95
2023-03-23T21:30:22.967Z,2.60
2023-03-23T21:32:31.230Z,2.78
2023-03-23T21:34:36.314Z,3.40
2023-03-23T21:36:41.340Z,3.20
2023-03-23T21:38:46.501Z,3.67
2023-03-23T21:40:51.389Z,3.53
2023-03-23T21:42:56.197Z,3.85
2023-03-23T21:45:02.842Z,3.50
2023-03-23T21:47:07.916Z,3.90
2023-03-23T21:49:17.292Z,4.45
2023-03-23T21:51:25.577Z,4.32
2023-03-23T21:53:31.081Z,4.18
2023-03-23T21:55:36.466Z,4.35
2023-03-23T21:57:42.578Z,3.47
2023-03-23T21:59:47.457Z,3.33
2023-03-23T22:01:52.429Z,3.38
2023-03-23T22:03:57.548Z,3.60
2023-03-23T22:06:13.286Z,3.42
2023-03-23T22:08:18.061Z,3.40
2023-03-23T22:10:23.179Z,4.13
2023-03-23T22:12:28.916Z,3.97
2023-03-23T22:14:33.739Z,3.60
2023-03-23T22:16:38.789Z,3.75
2023-03-23T22:18:45.310Z,3.67
2023-03-23T22:20:50.088Z,2.92
2023-03-23T22:22:57.741Z,3.63
2023-03-23T22:25:02.660Z,3.15
2023-03-23T22:27:08.004Z,3.30
2023-03-23T22:29:15.087Z,3.13
2023-03-23T22:31:23.807Z,3.38
2023-03-23T22:33:29.292Z,3.08
2023-03-23T22:35:34.249Z,3.00
2023-03-23T22:37:39.194Z,2.75
2023-03-23T22:39:46.673Z,2.83
2023-03-23T22:41:51.498Z,3.28
2023-03-23T22:43:57.269Z,3.15
2023-03-23T22:46:02.420Z,2.95
2023-03-23T22:48:08.511Z,3.17
2023-03-23T22:50:14.013Z,2.83
2023-03-23T22:52:18.990Z,2.97
2023-03-23T22:54:23.802Z,2.90
2023-03-23T22:56:31.813Z,3.17
2023-03-23T22:58:36.748Z,2.60
2023-03-23T23:00:43.282Z,2.83
2023-03-23T23:02:49.224Z,2.40
2023-03-23T23:04:54.717Z,2.42
2023-03-23T23:07:11.998Z,3.00
2023-03-23T23:09:19.283Z,2.58
2023-03-23T23:11:26.128Z,2.45
2023-03-23T23:13:34.298Z,3.05
2023-03-23T23:15:40.390Z,2.60
2023-03-23T23:17:45.458Z,2.80
2023-03-23T23:19:50.467Z,2.85
2023-03-23T23:21:55.900Z,2.42
2023-03-23T23:24:01.253Z,2.60
2023-03-23T23:26:06.876Z,3.33
2023-03-23T23:28:11.678Z,3.08
2023-03-23T23:30:19.574Z,2.88
2023-03-23T23:32:24.463Z,3.05
2023-03-23T23:34:29.332Z,2.53
2023-03-23T23:36:34.999Z,2.75
2023-03-23T23:38:39.892Z,2.63
2023-03-23T23:40:46.286Z,3.00
2023-03-23T23:42:54.463Z,2.50
2023-03-23T23:44:59.349Z,2.50
2023-03-23T23:47:07.124Z,2.63
2023-03-23T23:49:11.926Z,2.90
2023-03-23T23:51:17.741Z,3.08
2023-03-23T23:53:23.233Z,2.60
2023-03-23T23:55:29.305Z,2.67
2023-03-23T23:57:34.102Z,2.38
2023-03-23T23:59:39.036Z,2.60
